createdAt,value
2017-06-22T00:00:21.813Z,16.53
2017-06-22T00:01:37.328Z,16.49
2017-06-22T00:02:52.710Z,16.49
2017-06-22T00:04:08.138Z,16.42
2017-06-22T00:05:23.846Z,16.44
2017-06-22T00:06:39.392Z,16.47
2017-06-22T00:07:54.891Z,16.46
2017-06-22T00:09:10.328Z,16.46
2017-06-22T00:10:26.035Z,16.36
2017-06-22T00:11:41.505Z,16.35
2017-06-22T00:12:57.095Z,16.39
2017-06-22T00:14:43.358Z,16.34
2017-06-22T00:15:59.113Z,16.34
2017-06-22T00:17:14.576Z,16.34
2017-06-22T00:18:29.644Z,16.29
2017-06-22T00:19:45.093Z,16.29
2017-06-22T00:20:59.464Z,16.32
2017-06-22T00:22:14.899Z,16.38
2017-06-22T00:23:30.301Z,16.38
2017-06-22T00:24:45.701Z,16.35
2017-06-22T00:26:01.404Z,16.27
2017-06-22T00:27:16.851Z,16.28
2017-06-22T00:28:32.317Z,16.28
2017-06-22T00:29:47.758Z,16.32
2017-06-22T00:31:03.521Z,16.27
2017-06-22T00:32:18.967Z,16.2
2017-06-22T00:33:34.429Z,16.28
2017-06-22T00:34:49.898Z,16.25
2017-06-22T00:36:05.580Z,16.21
2017-06-22T00:37:20.076Z,16.11
2017-06-22T00:38:35.560Z,16.24
2017-06-22T00:39:51.002Z,16.17
2017-06-22T00:41:06.995Z,16.14
2017-06-22T00:42:22.511Z,16.14
2017-06-22T00:43:37.958Z,16.17
2017-06-22T00:44:51.962Z,16.13
2017-06-22T00:46:07.697Z,16.16
2017-06-22T00:47:23.355Z,16.1
2017-06-22T00:48:38.422Z,16.14
2017-06-22T00:49:53.908Z,16.11
2017-06-22T00:51:08.309Z,16.19
2017-06-22T00:52:23.739Z,16.16
2017-06-22T00:53:39.218Z,16.07
2017-06-22T00:54:54.666Z,16.16
2017-06-22T00:56:10.376Z,16.06
2017-06-22T00:57:25.785Z,16.04
2017-06-22T00:58:41.241Z,16.06
2017-06-22T00:59:56.647Z,16.1
2017-06-22T01:01:12.444Z,16.01
2017-06-22T01:02:27.844Z,16.02
2017-06-22T01:03:43.231Z,15.96
2017-06-22T01:04:58.639Z,16.04
2017-06-22T01:06:45.369Z,15.96
2017-06-22T01:08:00.768Z,15.99
2017-06-22T01:09:14.478Z,15.99
2017-06-22T01:10:29.921Z,15.96
2017-06-22T01:11:45.756Z,16.06
2017-06-22T01:13:01.251Z,15.98
2017-06-22T01:14:16.706Z,16.02
2017-06-22T01:15:31.992Z,15.96
2017-06-22T01:16:47.715Z,16.06
2017-06-22T01:18:03.191Z,16.01
2017-06-22T01:19:18.649Z,15.96
2017-06-22T01:20:34.351Z,16.01
2017-06-22T01:21:50.039Z,15.98
2017-06-22T01:23:05.486Z,16.01
2017-06-22T01:24:20.891Z,15.94
2017-06-22T01:25:36.338Z,15.98
2017-06-22T01:26:52.016Z,15.96
2017-06-22T01:28:07.501Z,15.94
2017-06-22T01:29:22.947Z,15.96
2017-06-22T01:30:38.401Z,15.95
2017-06-22T01:31:54.301Z,15.92
2017-06-22T01:33:09.763Z,15.92
2017-06-22T01:34:25.214Z,15.91
2017-06-22T01:35:40.682Z,15.8
2017-06-22T01:36:56.376Z,15.89
2017-06-22T01:38:11.840Z,15.91
2017-06-22T01:39:27.266Z,15.82
2017-06-22T01:40:42.707Z,15.84
2017-06-22T01:41:58.455Z,15.87
2017-06-22T01:43:13.909Z,15.8
2017-06-22T01:44:29.323Z,15.82
2017-06-22T01:45:44.764Z,15.89
2017-06-22T01:47:00.476Z,15.91
2017-06-22T01:48:15.949Z,15.88
2017-06-22T01:49:31.409Z,15.79
2017-06-22T01:50:46.848Z,15.92
2017-06-22T01:52:02.550Z,15.89
2017-06-22T01:53:18.000Z,15.82
2017-06-22T01:54:33.591Z,15.94
2017-06-22T01:55:49.043Z,15.82
2017-06-22T01:57:04.717Z,15.91
2017-06-22T01:58:20.192Z,15.98
2017-06-22T01:59:35.616Z,15.98
2017-06-22T02:00:49.731Z,15.92
2017-06-22T02:02:05.516Z,15.91
2017-06-22T02:03:18.334Z,15.96
2017-06-22T02:04:33.795Z,15.99
2017-06-22T02:05:49.202Z,15.95
2017-06-22T02:07:04.889Z,15.95
2017-06-22T02:08:20.336Z,15.99
2017-06-22T02:09:34.362Z,15.95
2017-06-22T02:10:50.021Z,15.91
2017-06-22T02:12:05.638Z,15.96
2017-06-22T02:13:21.101Z,15.89
2017-06-22T02:14:36.556Z,15.88
2017-06-22T02:15:51.955Z,15.82
2017-06-22T02:17:07.666Z,15.82
2017-06-22T02:18:23.082Z,15.84
2017-06-22T02:19:38.525Z,15.91
2017-06-22T02:21:07.364Z,15.89
2017-06-22T02:22:23.098Z,15.92
2017-06-22T02:23:37.165Z,15.8
2017-06-22T02:24:52.637Z,15.8
2017-06-22T02:26:08.066Z,15.78
2017-06-22T02:27:37.476Z,15.73
2017-06-22T02:28:52.888Z,15.7
2017-06-22T02:30:08.346Z,15.7
2017-06-22T02:31:23.798Z,15.61
2017-06-22T02:32:39.515Z,15.64
2017-06-22T02:33:54.562Z,15.66
2017-06-22T02:35:08.643Z,15.64
2017-06-22T02:36:24.103Z,15.53
2017-06-22T02:37:39.813Z,15.63
2017-06-22T02:38:55.250Z,15.58
2017-06-22T02:40:10.716Z,15.54
2017-06-22T02:41:26.196Z,15.54
2017-06-22T02:42:41.914Z,15.5
2017-06-22T02:43:56.050Z,15.48
2017-06-22T02:45:11.873Z,15.5
2017-06-22T02:46:27.319Z,15.54
2017-06-22T02:47:43.094Z,15.42
2017-06-22T02:48:58.544Z,15.48
2017-06-22T02:50:13.987Z,15.45
2017-06-22T02:51:28.336Z,15.46
2017-06-22T02:52:44.012Z,15.42
2017-06-22T02:53:59.464Z,15.43
2017-06-22T02:55:14.907Z,15.4
2017-06-22T02:56:30.033Z,15.46
2017-06-22T02:57:45.749Z,15.4
2017-06-22T02:59:01.188Z,15.38
2017-06-22T03:00:15.316Z,15.35
2017-06-22T03:01:30.757Z,15.32
2017-06-22T03:02:46.459Z,15.3
2017-06-22T03:04:01.997Z,15.27
2017-06-22T03:05:17.478Z,15.3
2017-06-22T03:06:32.910Z,15.27
2017-06-22T03:07:48.598Z,15.29
2017-06-22T03:09:04.047Z,15.35
2017-06-22T03:10:19.463Z,15.32
2017-06-22T03:11:34.898Z,15.3
2017-06-22T03:12:50.564Z,15.23
2017-06-22T03:14:05.942Z,15.27
2017-06-22T03:15:20.100Z,15.3
2017-06-22T03:16:35.573Z,15.29
2017-06-22T03:17:51.534Z,15.25
2017-06-22T03:19:05.542Z,15.3
2017-06-22T03:20:20.973Z,15.24
2017-06-22T03:21:36.498Z,15.23
2017-06-22T03:22:52.196Z,15.27
2017-06-22T03:24:07.622Z,15.29
2017-06-22T03:25:23.059Z,15.23
2017-06-22T03:26:38.527Z,15.27
2017-06-22T03:27:54.225Z,15.24
2017-06-22T03:29:09.904Z,15.32
2017-06-22T03:30:25.391Z,15.35
2017-06-22T03:31:40.817Z,15.35
2017-06-22T03:32:56.511Z,15.38
2017-06-22T03:34:10.654Z,15.42
2017-06-22T03:35:24.787Z,15.38
2017-06-22T03:36:40.240Z,15.45
2017-06-22T03:37:55.930Z,15.46
2017-06-22T03:39:11.380Z,15.57
2017-06-22T03:40:26.821Z,15.55
2017-06-22T03:41:42.272Z,15.53
2017-06-22T03:42:58.056Z,15.57
2017-06-22T03:44:13.514Z,15.61
2017-06-22T03:45:27.813Z,15.64
2017-06-22T03:46:41.966Z,15.55
2017-06-22T03:47:56.003Z,15.6
2017-06-22T03:49:11.505Z,15.63
2017-06-22T03:50:26.968Z,15.6
2017-06-22T03:51:42.430Z,15.68
2017-06-22T03:52:58.334Z,15.64
2017-06-22T03:54:13.966Z,15.58
2017-06-22T03:55:29.350Z,15.6
2017-06-22T03:56:44.772Z,15.64
2017-06-22T03:58:00.517Z,15.68
2017-06-22T03:59:16.297Z,15.73
2017-06-22T04:00:31.720Z,15.72
2017-06-22T04:01:47.175Z,15.75
2017-06-22T04:03:34.062Z,15.84
2017-06-22T04:04:49.575Z,15.92
2017-06-22T04:06:05.046Z,15.98
2017-06-22T04:07:20.491Z,16.07
2017-06-22T04:08:34.724Z,16.09
2017-06-22T04:09:50.251Z,16.13
2017-06-22T04:11:05.706Z,16.07
2017-06-22T04:12:21.181Z,16.17
2017-06-22T04:13:36.859Z,16.2
2017-06-22T04:14:52.597Z,16.17
2017-06-22T04:16:07.666Z,16.21
2017-06-22T04:17:23.096Z,16.29
2017-06-22T04:18:38.820Z,16.25
2017-06-22T04:19:54.314Z,16.38
2017-06-22T04:21:09.748Z,16.29
2017-06-22T04:22:23.744Z,16.32
2017-06-22T04:23:39.528Z,16.42
2017-06-22T04:24:54.917Z,16.27
2017-06-22T04:26:10.355Z,16.31
2017-06-22T04:27:25.992Z,16.27
2017-06-22T04:28:41.689Z,16.36
2017-06-22T04:29:55.828Z,16.28
2017-06-22T04:31:11.214Z,16.31
2017-06-22T04:32:26.710Z,16.42
2017-06-22T04:33:42.005Z,16.46
2017-06-22T04:34:57.542Z,16.34
2017-06-22T04:36:11.667Z,16.43
2017-06-22T04:37:26.755Z,16.42
2017-06-22T04:38:42.464Z,16.49
2017-06-22T04:39:57.566Z,16.39
2017-06-22T04:41:13.031Z,16.49
2017-06-22T04:42:27.189Z,16.49
2017-06-22T04:43:42.867Z,16.59
2017-06-22T04:44:58.723Z,16.54
2017-06-22T04:46:12.740Z,16.57
2017-06-22T04:47:26.837Z,16.56
2017-06-22T04:48:42.303Z,16.69
2017-06-22T04:49:58.081Z,16.71
2017-06-22T04:51:13.517Z,16.72
2017-06-22T04:52:28.958Z,16.74
2017-06-22T04:53:44.447Z,16.79
2017-06-22T04:55:00.309Z,16.79
2017-06-22T04:56:15.780Z,16.87
2017-06-22T04:57:31.156Z,16.99
2017-06-22T04:58:46.798Z,16.94
2017-06-22T05:00:02.644Z,16.93
2017-06-22T05:01:18.068Z,17.05
2017-06-22T05:02:33.534Z,17.06
2017-06-22T05:03:48.939Z,17.08
2017-06-22T05:05:04.596Z,17.09
2017-06-22T05:06:20.051Z,17.06
2017-06-22T05:07:35.703Z,17.04
2017-06-22T05:08:51.155Z,17.04
2017-06-22T05:10:06.828Z,17.08
2017-06-22T05:11:22.632Z,17.06
2017-06-22T05:12:38.110Z,17.05
2017-06-22T05:13:53.580Z,17.14
2017-06-22T05:15:09.497Z,17.11
2017-06-22T05:16:24.939Z,17.14
2017-06-22T05:17:40.389Z,17.09
2017-06-22T05:18:55.886Z,17.08
2017-06-22T05:20:11.789Z,17.24
2017-06-22T05:21:27.247Z,17.21
2017-06-22T05:22:42.720Z,17.24
2017-06-22T05:23:57.813Z,17.17
2017-06-22T05:25:13.521Z,17.23
2017-06-22T05:26:28.986Z,17.35
2017-06-22T05:27:44.424Z,17.27
2017-06-22T05:28:58.624Z,17.28
2017-06-22T05:30:14.241Z,17.27
2017-06-22T05:31:29.653Z,17.3
2017-06-22T05:32:45.089Z,17.32
2017-06-22T05:34:00.549Z,17.28
2017-06-22T05:35:16.246Z,17.27
2017-06-22T05:36:31.758Z,17.4
2017-06-22T05:37:47.169Z,17.39
2017-06-22T05:39:02.610Z,17.47
2017-06-22T05:40:18.302Z,17.46
2017-06-22T05:41:33.759Z,17.54
2017-06-22T05:42:49.220Z,17.58
2017-06-22T05:44:04.600Z,17.61
2017-06-22T05:45:20.281Z,17.61
2017-06-22T05:46:35.737Z,17.62
2017-06-22T05:47:51.173Z,17.72
2017-06-22T05:49:06.600Z,17.73
2017-06-22T05:50:22.519Z,17.75
2017-06-22T05:51:37.991Z,17.76
2017-06-22T05:52:53.421Z,17.7
2017-06-22T05:54:09.209Z,17.85
2017-06-22T05:55:24.942Z,17.92
2017-06-22T05:56:40.414Z,17.91
2017-06-22T05:57:55.835Z,17.97
2017-06-22T05:59:11.256Z,18.05
2017-06-22T06:00:25.613Z,18.01
2017-06-22T06:01:41.055Z,17.95
2017-06-22T06:02:56.523Z,18.07
2017-06-22T06:04:11.895Z,18.07
2017-06-22T06:05:27.576Z,18.23
2017-06-22T06:06:42.976Z,18.2
2017-06-22T06:07:57.135Z,18.35
2017-06-22T06:09:12.562Z,18.37
2017-06-22T06:10:28.422Z,18.34
2017-06-22T06:11:43.890Z,18.42
2017-06-22T06:12:59.284Z,18.57
2017-06-22T06:14:14.745Z,18.52
2017-06-22T06:15:30.389Z,18.56
2017-06-22T06:16:45.804Z,18.6
2017-06-22T06:18:01.249Z,18.69
2017-06-22T06:19:16.753Z,18.71
2017-06-22T06:20:32.585Z,18.8
2017-06-22T06:21:48.192Z,18.87
2017-06-22T06:23:02.386Z,18.88
2017-06-22T06:24:17.801Z,18.86
2017-06-22T06:25:33.479Z,18.84
2017-06-22T06:26:48.933Z,18.95
2017-06-22T06:28:04.393Z,18.95
2017-06-22T06:29:19.462Z,18.95
2017-06-22T06:30:35.164Z,19.03
2017-06-22T06:31:50.629Z,19.09
2017-06-22T06:33:06.073Z,19.19
2017-06-22T06:34:20.130Z,19.19
2017-06-22T06:35:35.903Z,19.23
2017-06-22T06:36:51.340Z,19.31
2017-06-22T06:38:06.800Z,19.37
2017-06-22T06:39:22.266Z,19.39
2017-06-22T06:40:37.974Z,19.49
2017-06-22T06:41:53.400Z,19.5
2017-06-22T06:43:08.828Z,19.65
2017-06-22T06:44:24.295Z,19.63
2017-06-22T06:45:39.977Z,19.74
2017-06-22T06:46:55.414Z,19.8
2017-06-22T06:48:10.868Z,19.85
2017-06-22T06:49:26.330Z,19.92
2017-06-22T06:50:42.005Z,19.95
2017-06-22T06:51:57.418Z,20.01
2017-06-22T06:53:12.506Z,20.05
2017-06-22T06:54:27.931Z,20.12
2017-06-22T06:55:43.674Z,20.11
2017-06-22T06:56:59.135Z,20.14
2017-06-22T06:58:14.568Z,20.28
2017-06-22T06:59:28.757Z,20.34
2017-06-22T07:00:44.463Z,20.36
2017-06-22T07:01:59.939Z,20.36
2017-06-22T07:04:44.683Z,20.41
2017-06-22T07:06:00.491Z,20.45
2017-06-22T07:07:14.661Z,20.43
2017-06-22T07:08:30.196Z,20.51
2017-06-22T07:09:46.013Z,20.53
2017-06-22T07:11:01.481Z,20.61
2017-06-22T07:12:16.945Z,20.72
2017-06-22T07:13:32.432Z,20.71
2017-06-22T07:14:45.635Z,20.76
2017-06-22T07:16:01.065Z,20.86
2017-06-22T07:17:16.144Z,20.9
2017-06-22T07:18:31.639Z,20.98
2017-06-22T07:19:47.330Z,21.1
2017-06-22T07:21:02.925Z,21.09
2017-06-22T07:22:18.739Z,21.12
2017-06-22T07:23:34.269Z,21.18
2017-06-22T07:24:49.950Z,21.18
2017-06-22T07:26:05.361Z,21.15
2017-06-22T07:27:20.513Z,21.18
2017-06-22T07:28:34.658Z,21.2
2017-06-22T07:29:50.272Z,21.18
2017-06-22T07:31:04.317Z,21.18
2017-06-22T07:32:19.770Z,21.3
2017-06-22T07:33:35.227Z,21.33
2017-06-22T07:34:50.792Z,21.38
2017-06-22T07:36:06.410Z,21.5
2017-06-22T07:37:21.905Z,21.56
2017-06-22T07:38:36.220Z,21.71
2017-06-22T07:39:50.468Z,21.86
2017-06-22T07:41:05.896Z,21.97
2017-06-22T07:42:21.403Z,22.02
2017-06-22T07:43:36.868Z,22.13
2017-06-22T07:44:49.750Z,22.06
2017-06-22T07:46:05.470Z,22.16
2017-06-22T07:47:20.614Z,22.13
2017-06-22T07:48:36.061Z,22.2
2017-06-22T07:49:51.522Z,22.16
2017-06-22T07:51:05.728Z,22.26
2017-06-22T07:52:19.902Z,22.31
2017-06-22T07:53:35.685Z,22.38
2017-06-22T07:54:49.873Z,22.3
2017-06-22T07:56:05.717Z,22.46
2017-06-22T07:57:19.888Z,22.46
2017-06-22T07:58:35.376Z,22.45
2017-06-22T07:59:51.019Z,22.49
2017-06-22T08:01:06.807Z,22.55
2017-06-22T08:02:22.217Z,22.6
2017-06-22T08:03:37.672Z,22.52
2017-06-22T08:04:53.105Z,22.58
2017-06-22T08:06:07.441Z,22.55
2017-06-22T08:07:22.867Z,22.55
2017-06-22T08:08:38.318Z,22.57
2017-06-22T08:09:53.749Z,22.61
2017-06-22T08:11:09.415Z,22.64
2017-06-22T08:12:24.874Z,22.71
2017-06-22T08:13:40.317Z,22.73
2017-06-22T08:14:55.815Z,22.79
2017-06-22T08:16:11.499Z,22.82
2017-06-22T08:17:26.920Z,22.93
2017-06-22T08:18:42.401Z,22.86
2017-06-22T08:19:56.739Z,22.95
2017-06-22T08:21:12.416Z,23.01
2017-06-22T08:22:26.555Z,23.06
2017-06-22T08:23:41.999Z,23.18
2017-06-22T08:24:57.447Z,23.21
2017-06-22T08:26:13.128Z,23.31
2017-06-22T08:27:28.649Z,23.33
2017-06-22T08:28:44.105Z,23.46
2017-06-22T08:29:59.518Z,23.57
2017-06-22T08:31:15.445Z,23.68
2017-06-22T08:32:30.947Z,23.68
2017-06-22T08:33:46.367Z,23.83
2017-06-22T08:35:01.753Z,23.91
2017-06-22T08:36:17.582Z,23.97
2017-06-22T08:37:31.729Z,24.06
2017-06-22T08:38:47.125Z,24.16
2017-06-22T08:40:15.072Z,24.25
2017-06-22T08:41:29.183Z,24.38
2017-06-22T08:42:44.646Z,24.39
2017-06-22T08:43:58.666Z,24.5
2017-06-22T08:45:14.439Z,24.55
2017-06-22T08:46:30.043Z,24.62
2017-06-22T08:47:45.482Z,24.72
2017-06-22T08:49:00.942Z,24.73
2017-06-22T08:50:16.641Z,24.85
2017-06-22T08:51:31.760Z,24.99
2017-06-22T08:52:47.190Z,25.06
2017-06-22T08:54:02.626Z,25.22
2017-06-22T08:55:18.349Z,25.43
2017-06-22T08:56:32.388Z,25.49
2017-06-22T08:57:47.870Z,25.66
2017-06-22T08:59:03.313Z,25.96
2017-06-22T09:00:19.036Z,26.21
2017-06-22T09:01:34.462Z,26.73
2017-06-22T09:02:48.577Z,27.27
2017-06-22T09:04:02.633Z,27.97
2017-06-22T09:05:18.092Z,28.41
2017-06-22T09:06:33.857Z,28.96
2017-06-22T09:07:48.043Z,29.36
2017-06-22T09:09:03.505Z,29.69
2017-06-22T09:10:18.936Z,30.02
2017-06-22T09:11:34.653Z,30.32
2017-06-22T09:12:50.151Z,30.61
2017-06-22T09:14:05.546Z,30.6
2017-06-22T09:15:21.018Z,30.63
2017-06-22T09:16:36.753Z,30.61
2017-06-22T09:17:52.258Z,30.49
2017-06-22T09:19:07.735Z,30.44
2017-06-22T09:20:23.195Z,30.25
2017-06-22T09:21:38.899Z,30.38
2017-06-22T09:22:54.418Z,30.63
2017-06-22T09:24:09.894Z,30.83
2017-06-22T09:25:25.323Z,30.79
2017-06-22T09:26:40.981Z,30.66
2017-06-22T09:27:56.433Z,30.63
2017-06-22T09:29:11.863Z,30.53
2017-06-22T09:30:27.403Z,30.39
2017-06-22T09:31:43.167Z,30.53
2017-06-22T09:32:58.605Z,30.54
2017-06-22T09:34:14.099Z,30.51
2017-06-22T09:35:29.630Z,30.56
2017-06-22T09:36:45.347Z,30.6
2017-06-22T09:38:00.801Z,30.76
2017-06-22T09:39:13.717Z,30.96
2017-06-22T09:40:29.173Z,31.23
2017-06-22T09:41:43.959Z,31.57
2017-06-22T09:42:59.418Z,31.75
2017-06-22T09:44:14.575Z,31.95
2017-06-22T09:45:30.061Z,32.06
2017-06-22T09:46:45.807Z,32.32
2017-06-22T09:48:01.287Z,32.4
2017-06-22T09:49:16.777Z,32.5
2017-06-22T09:50:32.218Z,32.69
2017-06-22T09:51:47.918Z,32.58
2017-06-22T09:53:03.411Z,32.73
2017-06-22T09:54:18.909Z,32.92
2017-06-22T09:55:32.929Z,33.13
2017-06-22T09:56:48.666Z,33.1
2017-06-22T09:58:04.155Z,33.34
2017-06-22T09:59:19.832Z,33.44
2017-06-22T10:00:35.287Z,33.41
2017-06-22T10:01:49.672Z,33.38
2017-06-22T10:03:05.174Z,33.19
2017-06-22T10:04:19.350Z,33
2017-06-22T10:05:34.809Z,32.82
2017-06-22T10:06:50.277Z,32.6
2017-06-22T10:08:05.782Z,32.62
2017-06-22T10:09:21.349Z,32.53
2017-06-22T10:10:36.882Z,32.44
2017-06-22T10:11:51.223Z,32.32
2017-06-22T10:13:06.872Z,32.17
2017-06-22T10:14:22.316Z,32.14
2017-06-22T10:15:37.798Z,32.14
2017-06-22T10:16:53.730Z,32.1
2017-06-22T10:18:09.211Z,32.26
2017-06-22T10:19:23.388Z,32.32
2017-06-22T10:20:38.816Z,32.36
2017-06-22T10:21:53.271Z,32.32
2017-06-22T10:23:09.005Z,32.21
2017-06-22T10:24:24.417Z,32.25
2017-06-22T10:25:39.917Z,32.29
2017-06-22T10:26:55.664Z,32.21
2017-06-22T10:28:11.217Z,32.04
2017-06-22T10:29:26.730Z,31.85
2017-06-22T10:30:42.218Z,31.73
2017-06-22T10:31:58.067Z,31.72
2017-06-22T10:33:13.536Z,31.75
2017-06-22T10:34:29.017Z,31.94
2017-06-22T10:35:44.469Z,32.03
2017-06-22T10:36:59.847Z,32.03
2017-06-22T10:38:15.349Z,31.92
2017-06-22T10:39:30.928Z,31.95
2017-06-22T10:40:46.037Z,32.02
2017-06-22T10:42:02.012Z,32.07
2017-06-22T10:43:17.526Z,31.92
2017-06-22T10:44:33.006Z,31.55
2017-06-22T10:45:45.852Z,31.54
2017-06-22T10:47:01.578Z,31.46
2017-06-22T10:48:17.038Z,31.51
2017-06-22T10:49:32.531Z,31.79
2017-06-22T10:50:48.018Z,31.94
2017-06-22T10:52:03.697Z,31.99
2017-06-22T10:53:19.155Z,31.91
2017-06-22T10:54:34.653Z,31.84
2017-06-22T10:55:48.720Z,31.73
2017-06-22T10:57:04.441Z,31.76
2017-06-22T10:58:19.928Z,31.6
2017-06-22T10:59:35.404Z,31.42
2017-06-22T11:00:50.898Z,31.2
2017-06-22T11:02:06.601Z,30.98
2017-06-22T11:03:20.939Z,30.9
2017-06-22T11:04:36.605Z,30.74
2017-06-22T11:05:52.118Z,30.63
2017-06-22T11:07:06.482Z,30.56
2017-06-22T11:08:20.707Z,30.44
2017-06-22T11:09:36.149Z,30.32
2017-06-22T11:10:51.675Z,30.14
2017-06-22T11:12:07.391Z,30
2017-06-22T11:13:22.828Z,29.91
2017-06-22T11:14:38.300Z,29.88
2017-06-22T11:15:53.710Z,29.87
2017-06-22T11:17:08.077Z,29.73
2017-06-22T11:18:23.568Z,29.75
2017-06-22T11:19:39.193Z,29.62
2017-06-22T11:20:54.789Z,29.62
2017-06-22T11:22:10.487Z,29.53
2017-06-22T11:23:24.506Z,29.5
2017-06-22T11:24:40.008Z,29.43
2017-06-22T11:25:55.510Z,29.33
2017-06-22T11:27:11.254Z,29.35
2017-06-22T11:28:26.836Z,29.28
2017-06-22T11:29:42.331Z,29.16
2017-06-22T11:30:57.785Z,29.06
2017-06-22T11:32:13.668Z,29.01
2017-06-22T11:33:29.165Z,29.01
2017-06-22T11:34:44.689Z,28.94
2017-06-22T11:36:00.207Z,28.88
2017-06-22T11:37:12.914Z,28.79
2017-06-22T11:38:28.633Z,28.73
2017-06-22T11:39:44.201Z,28.76
2017-06-22T11:40:58.382Z,28.56
2017-06-22T11:42:13.864Z,28.57
2017-06-22T11:43:29.594Z,28.49
2017-06-22T11:44:45.123Z,28.44
2017-06-22T11:46:00.676Z,28.35
2017-06-22T11:47:16.156Z,28.32
2017-06-22T11:48:31.880Z,28.31
2017-06-22T11:49:47.418Z,28.29
2017-06-22T11:51:02.512Z,28.22
2017-06-22T11:52:17.953Z,28.23
2017-06-22T11:53:33.719Z,28.23
2017-06-22T11:54:49.115Z,28.22
2017-06-22T11:56:04.597Z,28.2
2017-06-22T11:57:19.737Z,28.22
2017-06-22T11:58:35.452Z,28.2
2017-06-22T11:59:50.931Z,28.14
2017-06-22T12:01:06.413Z,28.16
2017-06-22T12:02:21.906Z,28.13
2017-06-22T12:03:37.638Z,28.14
2017-06-22T12:04:51.879Z,28.13
2017-06-22T12:06:07.407Z,28.17
2017-06-22T12:07:22.877Z,28.14
2017-06-22T12:08:38.602Z,28.08
2017-06-22T12:09:54.096Z,28.09
2017-06-22T12:11:08.256Z,27.98
2017-06-22T12:12:23.770Z,28.01
2017-06-22T12:13:39.486Z,27.87
2017-06-22T12:14:54.675Z,27.94
2017-06-22T12:16:09.756Z,27.87
2017-06-22T12:17:25.378Z,27.76
2017-06-22T12:18:39.776Z,27.58
2017-06-22T12:19:55.236Z,27.1
2017-06-22T12:21:10.687Z,26.12
2017-06-22T12:22:24.830Z,24.63
2017-06-22T12:23:40.587Z,23.08
2017-06-22T12:24:56.266Z,22.33
2017-06-22T12:26:11.710Z,21.71
2017-06-22T12:27:27.209Z,21.16
2017-06-22T12:28:43.010Z,20.67
2017-06-22T12:29:58.657Z,20.27
2017-06-22T12:31:14.132Z,19.95
2017-06-22T12:32:43.293Z,19.63
2017-06-22T12:33:58.803Z,19.43
2017-06-22T12:35:14.241Z,19.31
2017-06-22T12:36:29.774Z,19.15
2017-06-22T12:37:45.828Z,19.05
2017-06-22T12:39:01.537Z,18.98
2017-06-22T12:40:16.960Z,18.97
2017-06-22T12:41:32.458Z,18.9
2017-06-22T12:42:48.195Z,18.67
2017-06-22T12:44:03.890Z,18.71
2017-06-22T12:45:19.315Z,18.62
2017-06-22T12:46:34.869Z,18.55
2017-06-22T12:47:50.711Z,18.63
2017-06-22T12:49:06.177Z,18.72
2017-06-22T12:50:21.653Z,18.67
2017-06-22T12:51:37.108Z,18.71
2017-06-22T12:52:52.859Z,18.69
2017-06-22T12:54:08.333Z,18.69
2017-06-22T12:55:23.777Z,18.56
2017-06-22T12:56:39.248Z,18.56
2017-06-22T12:57:55.011Z,18.49
2017-06-22T12:59:10.490Z,18.44
2017-06-22T13:00:26.007Z,18.37
2017-06-22T13:01:41.464Z,18.42
2017-06-22T13:03:10.896Z,18.46
2017-06-22T13:04:26.545Z,18.53
2017-06-22T13:05:40.714Z,18.59
2017-06-22T13:06:56.124Z,18.56
2017-06-22T13:08:11.874Z,18.52
2017-06-22T13:09:27.364Z,18.55
2017-06-22T13:10:42.920Z,18.34
2017-06-22T13:11:58.349Z,18.32
2017-06-22T13:13:12.838Z,18.22
2017-06-22T13:14:28.355Z,18.19
2017-06-22T13:15:43.813Z,18.26
2017-06-22T13:16:59.271Z,18.25
2017-06-22T13:18:15.026Z,18.28
2017-06-22T13:19:29.172Z,18.41
2017-06-22T13:20:44.710Z,18.4
2017-06-22T13:22:00.155Z,18.4
2017-06-22T13:23:15.923Z,18.32
2017-06-22T13:24:31.470Z,18.47
2017-06-22T13:25:47.167Z,18.41
2017-06-22T13:27:02.672Z,18.5
2017-06-22T13:28:18.358Z,18.56
2017-06-22T13:29:33.809Z,18.49
2017-06-22T13:30:49.299Z,18.4
2017-06-22T13:32:04.647Z,18.37
2017-06-22T13:33:20.419Z,18.41
2017-06-22T13:34:35.826Z,18.37
2017-06-22T13:35:51.283Z,18.37
2017-06-22T13:37:06.917Z,18.34
2017-06-22T13:38:21.392Z,18.32
2017-06-22T13:39:36.840Z,18.37
2017-06-22T13:40:51.001Z,18.34
2017-06-22T13:42:06.515Z,18.34
2017-06-22T13:43:22.281Z,18.25
2017-06-22T13:44:37.507Z,18.23
2017-06-22T13:45:52.944Z,18.37
2017-06-22T13:47:08.441Z,18.26
2017-06-22T13:48:24.204Z,18.3
2017-06-22T13:49:39.668Z,18.25
2017-06-22T13:50:55.370Z,18.3
2017-06-22T13:52:10.777Z,18.3
2017-06-22T13:53:26.551Z,18.22
2017-06-22T13:54:41.962Z,18.05
2017-06-22T13:55:57.826Z,18.12
2017-06-22T13:57:11.983Z,18.13
2017-06-22T13:58:27.335Z,18
2017-06-22T13:59:41.520Z,18
2017-06-22T14:00:56.978Z,17.97
2017-06-22T14:02:12.485Z,17.98
2017-06-22T14:03:26.873Z,18
2017-06-22T14:04:42.357Z,17.92
2017-06-22T14:05:57.853Z,17.98
2017-06-22T14:07:12.046Z,17.92
2017-06-22T14:08:27.804Z,17.95
2017-06-22T14:09:43.507Z,17.94
2017-06-22T14:10:58.989Z,18
2017-06-22T14:12:14.481Z,18.04
2017-06-22T14:13:30.153Z,18.02
2017-06-22T14:14:45.666Z,17.98
2017-06-22T14:16:01.172Z,18.04
2017-06-22T14:17:16.626Z,18.04
2017-06-22T14:18:32.345Z,18.02
2017-06-22T14:19:47.796Z,17.95
2017-06-22T14:21:03.300Z,18.02
2017-06-22T14:22:18.736Z,18.02
2017-06-22T14:23:34.455Z,18.05
2017-06-22T14:24:49.923Z,17.97
2017-06-22T14:26:05.413Z,18.04
2017-06-22T14:27:20.892Z,18.09
2017-06-22T14:28:35.196Z,18.15
2017-06-22T14:29:50.680Z,18.07
2017-06-22T14:31:06.126Z,18.12
2017-06-22T14:32:21.836Z,18.12
2017-06-22T14:33:37.586Z,18.17
2017-06-22T14:34:53.226Z,18.1
2017-06-22T14:36:08.682Z,18.13
2017-06-22T14:37:24.146Z,18.25
2017-06-22T14:38:39.930Z,18.22
2017-06-22T14:39:55.431Z,18.26
2017-06-22T14:41:10.913Z,18.25
2017-06-22T14:42:25.090Z,18.25
2017-06-22T14:43:40.891Z,18.25
2017-06-22T14:44:56.383Z,18.28
2017-06-22T14:46:11.850Z,18.26
2017-06-22T14:47:27.261Z,18.35
2017-06-22T14:48:43.116Z,18.37
2017-06-22T14:49:58.566Z,18.41
2017-06-22T14:51:14.054Z,18.4
2017-06-22T14:52:29.622Z,18.4
2017-06-22T14:53:44.939Z,18.28
2017-06-22T14:55:00.339Z,18.44
2017-06-22T14:56:15.977Z,18.42
2017-06-22T14:57:31.459Z,18.26
2017-06-22T14:58:47.331Z,18.28
2017-06-22T15:00:02.933Z,18.4
2017-06-22T15:01:17.043Z,18.37
2017-06-22T15:02:32.923Z,18.3
2017-06-22T15:03:48.586Z,18.34
2017-06-22T15:05:04.044Z,18.44
2017-06-22T15:06:19.497Z,18.41
2017-06-22T15:07:35.069Z,18.32
2017-06-22T15:08:50.803Z,18.28
2017-06-22T15:10:06.381Z,18.25
2017-06-22T15:11:21.827Z,18.28
2017-06-22T15:12:36.959Z,18.23
2017-06-22T15:13:52.919Z,18.19
2017-06-22T15:15:08.378Z,18.15
2017-06-22T15:16:23.870Z,18.16
2017-06-22T15:17:39.379Z,18.1
2017-06-22T15:18:55.150Z,18.15
2017-06-22T15:20:10.589Z,18.12
2017-06-22T15:21:26.320Z,18.12
2017-06-22T15:22:41.832Z,18.01
2017-06-22T15:23:57.566Z,17.92
2017-06-22T15:25:13.042Z,18
2017-06-22T15:26:28.517Z,18.04
2017-06-22T15:27:44.038Z,17.94
2017-06-22T15:28:59.784Z,17.98
2017-06-22T15:30:15.384Z,17.98
2017-06-22T15:31:30.881Z,17.98
2017-06-22T15:32:46.345Z,17.86
2017-06-22T15:34:02.119Z,17.89
2017-06-22T15:35:17.655Z,17.89
2017-06-22T15:36:33.153Z,17.92
2017-06-22T15:37:48.642Z,17.95
2017-06-22T15:39:04.425Z,17.8
2017-06-22T15:40:20.123Z,17.87
2017-06-22T15:41:35.565Z,17.86
2017-06-22T15:42:51.026Z,17.79
2017-06-22T15:44:07.014Z,17.68
2017-06-22T15:45:22.499Z,17.73
2017-06-22T15:46:38.004Z,17.83
2017-06-22T15:47:53.545Z,17.82
2017-06-22T15:49:08.914Z,17.73
2017-06-22T15:50:24.419Z,17.77
2017-06-22T15:51:39.931Z,17.72
2017-06-22T15:52:55.350Z,17.67
2017-06-22T15:54:11.080Z,17.77
2017-06-22T15:55:26.566Z,17.73
2017-06-22T15:56:42.087Z,17.73
2017-06-22T15:57:57.558Z,17.77
2017-06-22T15:59:13.568Z,17.76
2017-06-22T16:00:29.334Z,17.72
2017-06-22T16:01:44.931Z,17.91
2017-06-22T16:03:00.379Z,17.79
2017-06-22T16:04:16.197Z,17.91
2017-06-22T16:05:31.731Z,17.97
2017-06-22T16:06:47.155Z,17.95
2017-06-22T16:08:01.325Z,17.91
2017-06-22T16:09:17.078Z,18.02
2017-06-22T16:10:32.534Z,18.1
2017-06-22T16:11:48.005Z,17.98
2017-06-22T16:13:02.169Z,18.04
2017-06-22T16:14:18.124Z,18.09
2017-06-22T16:15:33.755Z,18.12
2017-06-22T16:16:49.280Z,18.09
2017-06-22T16:18:04.761Z,18.1